sensor_id;sensor_type;location;lat;lon;timestamp;P1;durP1;ratioP1;P2;durP2;ratioP2
24357;SDS011;13668;52.154;5.580;2023-01-16T00:02:17;5.22;;;2.35;;
24357;SDS011;13668;52.154;5.580;2023-01-16T00:04:43;3.88;;;2.30;;
24357;SDS011;13668;52.154;5.580;2023-01-16T00:07:09;4.47;;;2.20;;
24357;SDS011;13668;52.154;5.580;2023-01-16T00:09:34;3.58;;;2.08;;
24357;SDS011;13668;52.154;5.580;2023-01-16T00:12:00;2.70;;;2.00;;
24357;SDS011;13668;52.154;5.580;2023-01-16T00:14:28;2.50;;;2.30;;
24357;SDS011;13668;52.154;5.580;2023-01-16T00:16:55;3.20;;;2.90;;
24357;SDS011;13668;52.154;5.580;2023-01-16T00:19:21;6.78;;;2.85;;
24357;SDS011;13668;52.154;5.580;2023-01-16T00:21:47;4.10;;;2.78;;
24357;SDS011;13668;52.154;5.580;2023-01-16T00:24:13;5.63;;;3.00;;
24357;SDS011;13668;52.154;5.580;2023-01-16T00:26:39;4.78;;;3.33;;
24357;SDS011;13668;52.154;5.580;2023-01-16T00:29:05;4.38;;;3.42;;
24357;SDS011;13668;52.154;5.580;2023-01-16T00:31:30;5.72;;;3.90;;
24357;SDS011;13668;52.154;5.580;2023-01-16T00:33:56;4.13;;;3.63;;
24357;SDS011;13668;52.154;5.580;2023-01-16T00:36:22;4.30;;;3.75;;
24357;SDS011;13668;52.154;5.580;2023-01-16T00:38:48;4.32;;;3.50;;
24357;SDS011;13668;52.154;5.580;2023-01-16T00:41:14;5.93;;;4.10;;
24357;SDS011;13668;52.154;5.580;2023-01-16T00:43:40;4.55;;;3.63;;
24357;SDS011;13668;52.154;5.580;2023-01-16T00:46:06;7.43;;;4.15;;
24357;SDS011;13668;52.154;5.580;2023-01-16T00:48:32;7.15;;;4.75;;
24357;SDS011;13668;52.154;5.580;2023-01-16T00:50:58;5.25;;;4.40;;
24357;SDS011;13668;52.154;5.580;2023-01-16T00:53:24;9.05;;;5.40;;
24357;SDS011;13668;52.154;5.580;2023-01-16T00:55:50;5.30;;;4.80;;
24357;SDS011;13668;52.154;5.580;2023-01-16T00:58:17;6.70;;;5.00;;
24357;SDS011;13668;52.154;5.580;2023-01-16T01:00:43;5.68;;;5.15;;
24357;SDS011;13668;52.154;5.580;2023-01-16T01:03:09;6.85;;;5.57;;
24357;SDS011;13668;52.154;5.580;2023-01-16T01:05:36;8.30;;;5.43;;
24357;SDS011;13668;52.154;5.580;2023-01-16T01:08:02;7.72;;;5.75;;
24357;SDS011;13668;52.154;5.580;2023-01-16T01:10:28;7.72;;;5.72;;
24357;SDS011;13668;52.154;5.580;2023-01-16T01:12:54;10.07;;;6.43;;
24357;SDS011;13668;52.154;5.580;2023-01-16T01:15:20;7.47;;;6.30;;
24357;SDS011;13668;52.154;5.580;2023-01-16T01:17:47;7.97;;;6.30;;
24357;SDS011;13668;52.154;5.580;2023-01-16T01:20:12;9.68;;;6.10;;
24357;SDS011;13668;52.154;5.580;2023-01-16T01:22:38;8.70;;;7.18;;
24357;SDS011;13668;52.154;5.580;2023-01-16T01:25:04;10.20;;;7.68;;
24357;SDS011;13668;52.154;5.580;2023-01-16T01:27:31;10.30;;;7.65;;
24357;SDS011;13668;52.154;5.580;2023-01-16T01:29:57;9.20;;;8.20;;
24357;SDS011;13668;52.154;5.580;2023-01-16T01:32:22;11.18;;;7.97;;
24357;SDS011;13668;52.154;5.580;2023-01-16T01:34:48;9.77;;;8.55;;
24357;SDS011;13668;52.154;5.580;2023-01-16T01:37:14;11.45;;;10.15;;
24357;SDS011;13668;52.154;5.580;2023-01-16T01:39:40;14.02;;;10.57;;
24357;SDS011;13668;52.154;5.580;2023-01-16T01:42:09;14.60;;;11.27;;
24357;SDS011;13668;52.154;5.580;2023-01-16T01:44:54;15.27;;;10.93;;
24357;SDS011;13668;52.154;5.580;2023-01-16T01:47:26;16.08;;;11.98;;
24357;SDS011;13668;52.154;5.580;2023-01-16T01:49:52;18.92;;;12.68;;
24357;SDS011;13668;52.154;5.580;2023-01-16T01:52:19;18.20;;;12.45;;
24357;SDS011;13668;52.154;5.580;2023-01-16T01:54:47;21.08;;;12.85;;
24357;SDS011;13668;52.154;5.580;2023-01-16T01:57:16;17.75;;;12.73;;
24357;SDS011;13668;52.154;5.580;2023-01-16T01:59:49;20.45;;;12.68;;
24357;SDS011;13668;52.154;5.580;2023-01-16T02:02:16;21.83;;;14.18;;
24357;SDS011;13668;52.154;5.580;2023-01-16T02:04:44;16.05;;;12.60;;
24357;SDS011;13668;52.154;5.580;2023-01-16T02:07:12;17.25;;;12.63;;
24357;SDS011;13668;52.154;5.580;2023-01-16T02:09:39;19.85;;;13.48;;
24357;SDS011;13668;52.154;5.580;2023-01-16T02:12:07;19.30;;;12.77;;
24357;SDS011;13668;52.154;5.580;2023-01-16T02:14:35;15.02;;;11.45;;
24357;SDS011;13668;52.154;5.580;2023-01-16T02:17:03;15.10;;;11.90;;
24357;SDS011;13668;52.154;5.580;2023-01-16T02:19:54;14.10;;;11.18;;
24357;SDS011;13668;52.154;5.580;2023-01-16T02:30:14;11.30;;;7.57;;
24357;SDS011;13668;52.154;5.580;2023-01-16T02:38:19;8.57;;;6.95;;
24357;SDS011;13668;52.154;5.580;2023-01-16T02:46:04;8.38;;;6.18;;
24357;SDS011;13668;52.154;5.580;2023-01-16T02:48:40;9.60;;;5.57;;
24357;SDS011;13668;52.154;5.580;2023-01-16T02:51:23;10.02;;;5.90;;
24357;SDS011;13668;52.154;5.580;2023-01-16T02:53:58;11.55;;;6.40;;
24357;SDS011;13668;52.154;5.580;2023-01-16T02:56:27;7.40;;;6.35;;
24357;SDS011;13668;52.154;5.580;2023-01-16T02:58:56;9.20;;;6.25;;
24357;SDS011;13668;52.154;5.580;2023-01-16T03:01:22;14.98;;;6.85;;
24357;SDS011;13668;52.154;5.580;2023-01-16T03:11:28;9.60;;;5.97;;
24357;SDS011;13668;52.154;5.580;2023-01-16T03:24:32;6.72;;;4.53;;
24357;SDS011;13668;52.154;5.580;2023-01-16T03:27:14;7.65;;;4.63;;
24357;SDS011;13668;52.154;5.580;2023-01-16T03:29:45;6.28;;;3.72;;
24357;SDS011;13668;52.154;5.580;2023-01-16T03:39:42;10.20;;;3.40;;
24357;SDS011;13668;52.154;5.580;2023-01-16T03:42:12;6.72;;;2.63;;
24357;SDS011;13668;52.154;5.580;2023-01-16T03:44:40;6.25;;;2.70;;
24357;SDS011;13668;52.154;5.580;2023-01-16T03:47:08;4.78;;;2.50;;
24357;SDS011;13668;52.154;5.580;2023-01-16T03:49:40;5.60;;;2.30;;
24357;SDS011;13668;52.154;5.580;2023-01-16T03:52:06;5.47;;;2.47;;
24357;SDS011;13668;52.154;5.580;2023-01-16T03:54:36;5.95;;;2.20;;
24357;SDS011;13668;52.154;5.580;2023-01-16T03:57:16;6.53;;;2.25;;
24357;SDS011;13668;52.154;5.580;2023-01-16T03:59:44;9.75;;;2.70;;
24357;SDS011;13668;52.154;5.580;2023-01-16T04:02:26;7.30;;;2.45;;
24357;SDS011;13668;52.154;5.580;2023-01-16T04:10:23;5.30;;;2.55;;
24357;SDS011;13668;52.154;5.580;2023-01-16T04:12:51;6.07;;;2.90;;
24357;SDS011;13668;52.154;5.580;2023-01-16T04:15:18;4.57;;;1.83;;
24357;SDS011;13668;52.154;5.580;2023-01-16T04:17:45;2.55;;;1.95;;
24357;SDS011;13668;52.154;5.580;2023-01-16T04:20:11;8.32;;;2.60;;
24357;SDS011;13668;52.154;5.580;2023-01-16T04:22:37;5.25;;;2.00;;
24357;SDS011;13668;52.154;5.580;2023-01-16T04:25:04;4.80;;;2.33;;
24357;SDS011;13668;52.154;5.580;2023-01-16T04:27:31;5.03;;;2.22;;
24357;SDS011;13668;52.154;5.580;2023-01-16T04:29:57;6.32;;;2.25;;
24357;SDS011;13668;52.154;5.580;2023-01-16T04:32:23;9.02;;;3.28;;
24357;SDS011;13668;52.154;5.580;2023-01-16T04:34:49;8.98;;;2.88;;
24357;SDS011;13668;52.154;5.580;2023-01-16T04:37:15;6.88;;;2.45;;
24357;SDS011;13668;52.154;5.580;2023-01-16T04:39:42;6.88;;;2.53;;
24357;SDS011;13668;52.154;5.580;2023-01-16T04:42:08;5.72;;;2.08;;
24357;SDS011;13668;52.154;5.580;2023-01-16T04:44:34;8.55;;;2.40;;
24357;SDS011;13668;52.154;5.580;2023-01-16T04:47:00;6.55;;;2.42;;
24357;SDS011;13668;52.154;5.580;2023-01-16T04:49:26;7.93;;;2.10;;
24357;SDS011;13668;52.154;5.580;2023-01-16T04:51:52;3.72;;;1.70;;
24357;SDS011;13668;52.154;5.580;2023-01-16T04:54:18;6.65;;;1.83;;
24357;SDS011;13668;52.154;5.580;2023-01-16T04:56:45;4.90;;;1.83;;
24357;SDS011;13668;52.154;5.580;2023-01-16T04:59:11;7.63;;;2.15;;
24357;SDS011;13668;52.154;5.580;2023-01-16T05:01:49;5.10;;;2.03;;
24357;SDS011;13668;52.154;5.580;2023-01-16T05:04:15;7.47;;;2.72;;
24357;SDS011;13668;52.154;5.580;2023-01-16T05:06:42;3.90;;;1.90;;
24357;SDS011;13668;52.154;5.580;2023-01-16T05:09:08;2.55;;;1.98;;
24357;SDS011;13668;52.154;5.580;2023-01-16T05:11:34;4.78;;;2.33;;
24357;SDS011;13668;52.154;5.580;2023-01-16T05:14:00;6.03;;;2.10;;
24357;SDS011;13668;52.154;5.580;2023-01-16T05:16:26;4.63;;;1.98;;
24357;SDS011;13668;52.154;5.580;2023-01-16T05:18:53;3.90;;;2.08;;
24357;SDS011;13668;52.154;5.580;2023-01-16T05:21:19;7.60;;;2.60;;
24357;SDS011;13668;52.154;5.580;2023-01-16T05:23:45;3.97;;;1.83;;
24357;SDS011;13668;52.154;5.580;2023-01-16T05:26:12;6.40;;;2.08;;
24357;SDS011;13668;52.154;5.580;2023-01-16T05:28:38;3.85;;;2.15;;
24357;SDS011;13668;52.154;5.580;2023-01-16T05:31:04;3.85;;;2.33;;
24357;SDS011;13668;52.154;5.580;2023-01-16T05:33:32;6.07;;;2.40;;
24357;SDS011;13668;52.154;5.580;2023-01-16T05:35:58;5.43;;;2.10;;
24357;SDS011;13668;52.154;5.580;2023-01-16T05:38:24;6.68;;;2.45;;
24357;SDS011;13668;52.154;5.580;2023-01-16T05:40:50;5.85;;;2.90;;
24357;SDS011;13668;52.154;5.580;2023-01-16T05:43:17;4.32;;;2.40;;
24357;SDS011;13668;52.154;5.580;2023-01-16T05:45:43;8.00;;;2.58;;
24357;SDS011;13668;52.154;5.580;2023-01-16T05:48:09;9.43;;;2.92;;
24357;SDS011;13668;52.154;5.580;2023-01-16T05:50:35;5.38;;;2.25;;
24357;SDS011;13668;52.154;5.580;2023-01-16T05:53:01;6.00;;;2.22;;
24357;SDS011;13668;52.154;5.580;2023-01-16T05:55:27;8.30;;;2.35;;
24357;SDS011;13668;52.154;5.580;2023-01-16T05:57:53;5.90;;;2.08;;
24357;SDS011;13668;52.154;5.580;2023-01-16T06:00:19;6.80;;;2.03;;
24357;SDS011;13668;52.154;5.580;2023-01-16T06:02:45;8.07;;;2.05;;
24357;SDS011;13668;52.154;5.580;2023-01-16T06:05:12;4.60;;;1.92;;
24357;SDS011;13668;52.154;5.580;2023-01-16T06:07:37;3.95;;;1.60;;
24357;SDS011;13668;52.154;5.580;2023-01-16T06:10:04;10.02;;;2.70;;
24357;SDS011;13668;52.154;5.580;2023-01-16T06:12:30;4.78;;;2.20;;
24357;SDS011;13668;52.154;5.580;2023-01-16T06:14:59;6.43;;;2.45;;
24357;SDS011;13668;52.154;5.580;2023-01-16T06:17:25;8.93;;;2.65;;
24357;SDS011;13668;52.154;5.580;2023-01-16T06:19:51;9.20;;;3.10;;
24357;SDS011;13668;52.154;5.580;2023-01-16T06:22:17;9.15;;;2.75;;
24357;SDS011;13668;52.154;5.580;2023-01-16T06:24:43;6.45;;;2.70;;
24357;SDS011;13668;52.154;5.580;2023-01-16T06:27:09;10.85;;;3.03;;
24357;SDS011;13668;52.154;5.580;2023-01-16T06:29:35;6.22;;;2.50;;
24357;SDS011;13668;52.154;5.580;2023-01-16T06:32:03;11.85;;;2.67;;
24357;SDS011;13668;52.154;5.580;2023-01-16T06:34:29;7.50;;;2.15;;
24357;SDS011;13668;52.154;5.580;2023-01-16T06:36:55;6.07;;;2.35;;
24357;SDS011;13668;52.154;5.580;2023-01-16T06:39:21;11.10;;;3.05;;
24357;SDS011;13668;52.154;5.580;2023-01-16T06:41:47;7.63;;;2.67;;
24357;SDS011;13668;52.154;5.580;2023-01-16T06:44:13;7.07;;;2.90;;
24357;SDS011;13668;52.154;5.580;2023-01-16T06:46:39;7.60;;;3.25;;
24357;SDS011;13668;52.154;5.580;2023-01-16T06:49:05;8.07;;;3.28;;
24357;SDS011;13668;52.154;5.580;2023-01-16T06:51:31;7.03;;;2.97;;
24357;SDS011;13668;52.154;5.580;2023-01-16T06:53:57;7.55;;;2.85;;
24357;SDS011;13668;52.154;5.580;2023-01-16T06:56:23;6.57;;;1.95;;
24357;SDS011;13668;52.154;5.580;2023-01-16T06:58:49;4.10;;;2.13;;
24357;SDS011;13668;52.154;5.580;2023-01-16T07:01:15;6.03;;;2.28;;
24357;SDS011;13668;52.154;5.580;2023-01-16T07:03:41;4.07;;;1.90;;
24357;SDS011;13668;52.154;5.580;2023-01-16T07:06:07;3.42;;;1.83;;
24357;SDS011;13668;52.154;5.580;2023-01-16T07:08:33;4.47;;;2.00;;
24357;SDS011;13668;52.154;5.580;2023-01-16T07:10:59;4.10;;;2.00;;
24357;SDS011;13668;52.154;5.580;2023-01-16T07:13:25;4.25;;;2.03;;
24357;SDS011;13668;52.154;5.580;2023-01-16T07:15:54;5.22;;;1.92;;
24357;SDS011;13668;52.154;5.580;2023-01-16T07:18:39;5.90;;;1.83;;
24357;SDS011;13668;52.154;5.580;2023-01-16T07:21:34;5.15;;;1.80;;
24357;SDS011;13668;52.154;5.580;2023-01-16T07:24:21;8.63;;;1.95;;
24357;SDS011;13668;52.154;5.580;2023-01-16T07:26:50;7.65;;;1.80;;
24357;SDS011;13668;52.154;5.580;2023-01-16T07:29:16;5.05;;;1.83;;
24357;SDS011;13668;52.154;5.580;2023-01-16T07:31:42;4.22;;;1.35;;
24357;SDS011;13668;52.154;5.580;2023-01-16T07:34:09;3.95;;;1.40;;
24357;SDS011;13668;52.154;5.580;2023-01-16T07:36:35;6.03;;;1.88;;
24357;SDS011;13668;52.154;5.580;2023-01-16T07:39:00;6.38;;;2.20;;
24357;SDS011;13668;52.154;5.580;2023-01-16T07:41:26;3.95;;;1.88;;
24357;SDS011;13668;52.154;5.580;2023-01-16T07:43:52;2.60;;;1.92;;
24357;SDS011;13668;52.154;5.580;2023-01-16T07:46:18;3.05;;;1.70;;
24357;SDS011;13668;52.154;5.580;2023-01-16T07:48:44;4.82;;;2.10;;
24357;SDS011;13668;52.154;5.580;2023-01-16T07:51:10;5.85;;;2.60;;
24357;SDS011;13668;52.154;5.580;2023-01-16T07:53:36;4.90;;;2.30;;
24357;SDS011;13668;52.154;5.580;2023-01-16T07:56:03;5.53;;;2.50;;
24357;SDS011;13668;52.154;5.580;2023-01-16T07:58:29;4.05;;;3.13;;
24357;SDS011;13668;52.154;5.580;2023-01-16T08:00:56;4.95;;;3.40;;
24357;SDS011;13668;52.154;5.580;2023-01-16T08:03:22;4.85;;;3.40;;
24357;SDS011;13668;52.154;5.580;2023-01-16T08:05:49;7.05;;;3.72;;
24357;SDS011;13668;52.154;5.580;2023-01-16T08:08:15;8.95;;;4.50;;
24357;SDS011;13668;52.154;5.580;2023-01-16T08:10:42;10.70;;;5.00;;
24357;SDS011;13668;52.154;5.580;2023-01-16T08:13:08;4.95;;;4.45;;
24357;SDS011;13668;52.154;5.580;2023-01-16T08:15:34;6.93;;;4.72;;
24357;SDS011;13668;52.154;5.580;2023-01-16T08:18:00;7.35;;;4.43;;
24357;SDS011;13668;52.154;5.580;2023-01-16T08:20:26;5.20;;;3.95;;
24357;SDS011;13668;52.154;5.580;2023-01-16T08:22:52;7.20;;;4.15;;
24357;SDS011;13668;52.154;5.580;2023-01-16T08:25:19;8.45;;;4.55;;
24357;SDS011;13668;52.154;5.580;2023-01-16T08:27:45;7.13;;;4.70;;
24357;SDS011;13668;52.154;5.580;2023-01-16T08:30:11;6.28;;;3.95;;
24357;SDS011;13668;52.154;5.580;2023-01-16T08:32:38;6.03;;;4.03;;
24357;SDS011;13668;52.154;5.580;2023-01-16T08:35:04;5.55;;;4.22;;
24357;SDS011;13668;52.154;5.580;2023-01-16T08:37:31;4.88;;;4.40;;
24357;SDS011;13668;52.154;5.580;2023-01-16T08:39:57;5.78;;;4.20;;
24357;SDS011;13668;52.154;5.580;2023-01-16T08:42:23;7.28;;;4.05;;
24357;SDS011;13668;52.154;5.580;2023-01-16T08:45:11;7.13;;;4.00;;
24357;SDS011;13668;52.154;5.580;2023-01-16T08:48:03;5.97;;;3.72;;
24357;SDS011;13668;52.154;5.580;2023-01-16T08:50:48;6.55;;;3.85;;
24357;SDS011;13668;52.154;5.580;2023-01-16T08:53:32;4.25;;;3.85;;
24357;SDS011;13668;52.154;5.580;2023-01-16T08:55:58;4.55;;;3.20;;
24357;SDS011;13668;52.154;5.580;2023-01-16T08:58:24;5.95;;;3.15;;
24357;SDS011;13668;52.154;5.580;2023-01-16T09:00:50;6.03;;;3.60;;
24357;SDS011;13668;52.154;5.580;2023-01-16T09:03:16;7.00;;;3.20;;
24357;SDS011;13668;52.154;5.580;2023-01-16T09:05:43;8.57;;;3.65;;
24357;SDS011;13668;52.154;5.580;2023-01-16T09:08:09;3.58;;;2.95;;
24357;SDS011;13668;52.154;5.580;2023-01-16T09:10:35;5.28;;;3.40;;
24357;SDS011;13668;52.154;5.580;2023-01-16T09:13:01;6.40;;;3.72;;
24357;SDS011;13668;52.154;5.580;2023-01-16T09:15:45;5.63;;;3.65;;
24357;SDS011;13668;52.154;5.580;2023-01-16T09:18:11;5.70;;;3.50;;
24357;SDS011;13668;52.154;5.580;2023-01-16T09:20:37;4.95;;;3.40;;
24357;SDS011;13668;52.154;5.580;2023-01-16T09:23:04;5.93;;;3.25;;
24357;SDS011;13668;52.154;5.580;2023-01-16T09:25:30;5.32;;;3.47;;
24357;SDS011;13668;52.154;5.580;2023-01-16T09:27:57;6.55;;;2.97;;
24357;SDS011;13668;52.154;5.580;2023-01-16T09:30:23;6.50;;;2.90;;
24357;SDS011;13668;52.154;5.580;2023-01-16T09:32:49;4.57;;;3.33;;
24357;SDS011;13668;52.154;5.580;2023-01-16T09:35:15;8.52;;;4.00;;
24357;SDS011;13668;52.154;5.580;2023-01-16T09:37:44;4.80;;;3.70;;
24357;SDS011;13668;52.154;5.580;2023-01-16T09:40:15;4.63;;;2.95;;
24357;SDS011;13668;52.154;5.580;2023-01-16T09:42:45;4.50;;;3.25;;
24357;SDS011;13668;52.154;5.580;2023-01-16T09:45:31;8.77;;;3.17;;
24357;SDS011;13668;52.154;5.580;2023-01-16T09:48:02;7.80;;;3.25;;
24357;SDS011;13668;52.154;5.580;2023-01-16T09:50:43;3.70;;;3.33;;
24357;SDS011;13668;52.154;5.580;2023-01-16T09:53:11;3.88;;;3.50;;
24357;SDS011;13668;52.154;5.580;2023-01-16T09:55:57;4.00;;;3.45;;
24357;SDS011;13668;52.154;5.580;2023-01-16T09:58:47;5.07;;;3.17;;
24357;SDS011;13668;52.154;5.580;2023-01-16T10:01:19;5.78;;;3.90;;
24357;SDS011;13668;52.154;5.580;2023-01-16T10:03:46;4.47;;;3.38;;
24357;SDS011;13668;52.154;5.580;2023-01-16T10:06:20;4.85;;;3.10;;
24357;SDS011;13668;52.154;5.580;2023-01-16T10:11:53;5.32;;;3.72;;
24357;SDS011;13668;52.154;5.580;2023-01-16T10:14:26;4.45;;;3.55;;
24357;SDS011;13668;52.154;5.580;2023-01-16T10:19:32;4.80;;;3.15;;
24357;SDS011;13668;52.154;5.580;2023-01-16T10:24:45;5.38;;;3.70;;
24357;SDS011;13668;52.154;5.580;2023-01-16T10:29:52;3.85;;;3.38;;
24357;SDS011;13668;52.154;5.580;2023-01-16T10:37:21;4.80;;;3.33;;
24357;SDS011;13668;52.154;5.580;2023-01-16T10:39:48;4.68;;;3.10;;
24357;SDS011;13668;52.154;5.580;2023-01-16T10:42:16;3.83;;;3.53;;
24357;SDS011;13668;52.154;5.580;2023-01-16T10:47:52;3.75;;;3.17;;
24357;SDS011;13668;52.154;5.580;2023-01-16T10:50:36;2.63;;;2.10;;
24357;SDS011;13668;52.154;5.580;2023-01-16T10:53:03;3.35;;;2.42;;
24357;SDS011;13668;52.154;5.580;2023-01-16T10:55:30;3.10;;;2.28;;
24357;SDS011;13668;52.154;5.580;2023-01-16T10:57:57;2.60;;;2.40;;
24357;SDS011;13668;52.154;5.580;2023-01-16T11:00:34;2.38;;;2.15;;
24357;SDS011;13668;52.154;5.580;2023-01-16T11:05:48;4.47;;;2.30;;
24357;SDS011;13668;52.154;5.580;2023-01-16T11:08:15;3.03;;;2.20;;
24357;SDS011;13668;52.154;5.580;2023-01-16T11:10:44;1.92;;;1.80;;
24357;SDS011;13668;52.154;5.580;2023-01-16T11:13:13;4.73;;;2.53;;
24357;SDS011;13668;52.154;5.580;2023-01-16T11:16:18;2.75;;;2.30;;
24357;SDS011;13668;52.154;5.580;2023-01-16T11:19:20;2.47;;;2.08;;
24357;SDS011;13668;52.154;5.580;2023-01-16T11:21:50;2.40;;;2.20;;
24357;SDS011;13668;52.154;5.580;2023-01-16T11:24:19;2.40;;;2.20;;
24357;SDS011;13668;52.154;5.580;2023-01-16T11:26:47;2.30;;;2.10;;
24357;SDS011;13668;52.154;5.580;2023-01-16T11:29:15;3.08;;;2.83;;
24357;SDS011;13668;52.154;5.580;2023-01-16T11:31:47;3.17;;;2.97;;
24357;SDS011;13668;52.154;5.580;2023-01-16T11:34:13;4.53;;;2.33;;
24357;SDS011;13668;52.154;5.580;2023-01-16T11:36:40;2.88;;;2.35;;
24357;SDS011;13668;52.154;5.580;2023-01-16T11:39:06;3.25;;;2.42;;
24357;SDS011;13668;52.154;5.580;2023-01-16T11:41:40;4.50;;;2.35;;
24357;SDS011;13668;52.154;5.580;2023-01-16T11:44:26;3.15;;;2.17;;
24357;SDS011;13668;52.154;5.580;2023-01-16T11:47:12;4.30;;;2.70;;
24357;SDS011;13668;52.154;5.580;2023-01-16T11:49:39;3.40;;;3.10;;
24357;SDS011;13668;52.154;5.580;2023-01-16T11:52:11;3.13;;;2.83;;
24357;SDS011;13668;52.154;5.580;2023-01-16T11:54:39;3.85;;;2.40;;
24357;SDS011;13668;52.154;5.580;2023-01-16T11:59:51;2.03;;;1.92;;
24357;SDS011;13668;52.154;5.580;2023-01-16T12:02:37;4.00;;;1.98;;
24357;SDS011;13668;52.154;5.580;2023-01-16T12:05:16;2.17;;;1.70;;
24357;SDS011;13668;52.154;5.580;2023-01-16T12:10:49;4.00;;;1.70;;
24357;SDS011;13668;52.154;5.580;2023-01-16T12:13:17;2.15;;;1.58;;
24357;SDS011;13668;52.154;5.580;2023-01-16T12:16:10;2.10;;;1.63;;
24357;SDS011;13668;52.154;5.580;2023-01-16T12:21:20;2.55;;;1.70;;
24357;SDS011;13668;52.154;5.580;2023-01-16T12:24:06;1.92;;;1.40;;
24357;SDS011;13668;52.154;5.580;2023-01-16T12:26:42;1.30;;;1.00;;
24357;SDS011;13668;52.154;5.580;2023-01-16T12:29:20;2.42;;;1.27;;
24357;SDS011;13668;52.154;5.580;2023-01-16T12:45:07;1.20;;;0.98;;
24357;SDS011;13668;52.154;5.580;2023-01-16T12:53:00;2.03;;;1.00;;
24357;SDS011;13668;52.154;5.580;2023-01-16T12:55:31;1.40;;;1.30;;
24357;SDS011;13668;52.154;5.580;2023-01-16T13:00:33;2.42;;;1.30;;
24357;SDS011;13668;52.154;5.580;2023-01-16T13:05:51;1.65;;;1.10;;
24357;SDS011;13668;52.154;5.580;2023-01-16T13:10:46;2.30;;;1.17;;
24357;SDS011;13668;52.154;5.580;2023-01-16T13:13:33;1.33;;;1.05;;
24357;SDS011;13668;52.154;5.580;2023-01-16T13:18:43;1.63;;;1.10;;
24357;SDS011;13668;52.154;5.580;2023-01-16T13:21:16;2.05;;;1.10;;
24357;SDS011;13668;52.154;5.580;2023-01-16T13:23:51;4.88;;;1.48;;
24357;SDS011;13668;52.154;5.580;2023-01-16T13:26:17;1.70;;;1.60;;
24357;SDS011;13668;52.154;5.580;2023-01-16T13:34:03;1.50;;;0.98;;
24357;SDS011;13668;52.154;5.580;2023-01-16T13:42:00;2.20;;;1.08;;
24357;SDS011;13668;52.154;5.580;2023-01-16T13:44:32;1.65;;;1.10;;
24357;SDS011;13668;52.154;5.580;2023-01-16T13:47:19;3.83;;;1.52;;
24357;SDS011;13668;52.154;5.580;2023-01-16T13:49:50;2.40;;;1.33;;
24357;SDS011;13668;52.154;5.580;2023-01-16T13:52:27;1.50;;;1.20;;
24357;SDS011;13668;52.154;5.580;2023-01-16T13:54:54;2.22;;;1.40;;
24357;SDS011;13668;52.154;5.580;2023-01-16T13:57:25;1.63;;;1.23;;
24357;SDS011;13668;52.154;5.580;2023-01-16T13:59:53;1.98;;;1.52;;
24357;SDS011;13668;52.154;5.580;2023-01-16T14:02:27;1.50;;;1.40;;
24357;SDS011;13668;52.154;5.580;2023-01-16T14:13:12;1.70;;;1.55;;
24357;SDS011;13668;52.154;5.580;2023-01-16T14:15:49;3.67;;;1.50;;
24357;SDS011;13668;52.154;5.580;2023-01-16T14:18:35;2.13;;;1.20;;
24357;SDS011;13668;52.154;5.580;2023-01-16T14:21:02;1.98;;;1.58;;
24357;SDS011;13668;52.154;5.580;2023-01-16T14:23:29;2.08;;;1.65;;
24357;SDS011;13668;52.154;5.580;2023-01-16T14:26:33;2.05;;;1.77;;
24357;SDS011;13668;52.154;5.580;2023-01-16T14:29:03;1.90;;;1.67;;
24357;SDS011;13668;52.154;5.580;2023-01-16T14:31:38;2.05;;;1.90;;
24357;SDS011;13668;52.154;5.580;2023-01-16T14:34:05;2.30;;;2.10;;
24357;SDS011;13668;52.154;5.580;2023-01-16T14:36:36;2.33;;;2.20;;
24357;SDS011;13668;52.154;5.580;2023-01-16T14:39:02;2.65;;;2.13;;
24357;SDS011;13668;52.154;5.580;2023-01-16T14:41:31;5.20;;;2.20;;
24357;SDS011;13668;52.154;5.580;2023-01-16T14:44:17;2.70;;;2.50;;
24357;SDS011;13668;52.154;5.580;2023-01-16T14:58:34;2.30;;;2.00;;
24357;SDS011;13668;52.154;5.580;2023-01-16T15:01:00;5.47;;;2.75;;
24357;SDS011;13668;52.154;5.580;2023-01-16T15:03:46;3.70;;;2.95;;
24357;SDS011;13668;52.154;5.580;2023-01-16T15:06:13;2.97;;;2.78;;
24357;SDS011;13668;52.154;5.580;2023-01-16T15:08:39;2.85;;;2.65;;
24357;SDS011;13668;52.154;5.580;2023-01-16T15:11:10;1.90;;;1.80;;
24357;SDS011;13668;52.154;5.580;2023-01-16T15:14:09;2.10;;;1.80;;
24357;SDS011;13668;52.154;5.580;2023-01-16T15:16:54;1.92;;;1.70;;
24357;SDS011;13668;52.154;5.580;2023-01-16T15:19:53;3.05;;;1.75;;
24357;SDS011;13668;52.154;5.580;2023-01-16T15:22:40;2.05;;;1.85;;
24357;SDS011;13668;52.154;5.580;2023-01-16T15:25:13;3.00;;;1.90;;
24357;SDS011;13668;52.154;5.580;2023-01-16T15:27:42;2.00;;;1.73;;
24357;SDS011;13668;52.154;5.580;2023-01-16T15:30:13;2.50;;;2.30;;
24357;SDS011;13668;52.154;5.580;2023-01-16T15:32:53;1.70;;;1.60;;
24357;SDS011;13668;52.154;5.580;2023-01-16T15:35:21;2.90;;;1.92;;
24357;SDS011;13668;52.154;5.580;2023-01-16T15:37:51;3.83;;;2.33;;
24357;SDS011;13668;52.154;5.580;2023-01-16T15:40:22;2.67;;;2.17;;
24357;SDS011;13668;52.154;5.580;2023-01-16T15:42:48;3.40;;;2.70;;
24357;SDS011;13668;52.154;5.580;2023-01-16T15:45:33;2.47;;;2.30;;
24357;SDS011;13668;52.154;5.580;2023-01-16T15:48:21;3.15;;;2.85;;
24357;SDS011;13668;52.154;5.580;2023-01-16T15:50:55;3.30;;;3.00;;
24357;SDS011;13668;52.154;5.580;2023-01-16T15:53:23;3.45;;;3.17;;
24357;SDS011;13668;52.154;5.580;2023-01-16T15:55:50;4.53;;;4.13;;
24357;SDS011;13668;52.154;5.580;2023-01-16T15:58:18;4.53;;;4.03;;
24357;SDS011;13668;52.154;5.580;2023-01-16T16:00:44;4.30;;;3.90;;
24357;SDS011;13668;52.154;5.580;2023-01-16T16:03:12;4.13;;;3.72;;
24357;SDS011;13668;52.154;5.580;2023-01-16T16:05:39;5.20;;;4.70;;
24357;SDS011;13668;52.154;5.580;2023-01-16T16:08:06;4.28;;;3.88;;
24357;SDS011;13668;52.154;5.580;2023-01-16T16:10:35;4.13;;;3.83;;
24357;SDS011;13668;52.154;5.580;2023-01-16T16:13:22;5.90;;;3.78;;
24357;SDS011;13668;52.154;5.580;2023-01-16T16:16:21;4.05;;;3.72;;
24357;SDS011;13668;52.154;5.580;2023-01-16T16:18:59;5.03;;;4.03;;
24357;SDS011;13668;52.154;5.580;2023-01-16T16:21:26;5.53;;;4.50;;
24357;SDS011;13668;52.154;5.580;2023-01-16T16:23:55;4.30;;;3.90;;
24357;SDS011;13668;52.154;5.580;2023-01-16T16:26:22;4.50;;;4.10;;
24357;SDS011;13668;52.154;5.580;2023-01-16T16:28:48;5.75;;;4.72;;
24357;SDS011;13668;52.154;5.580;2023-01-16T16:33:40;5.47;;;4.82;;
24357;SDS011;13668;52.154;5.580;2023-01-16T16:36:07;5.40;;;4.75;;
24357;SDS011;13668;52.154;5.580;2023-01-16T16:46:40;6.78;;;5.00;;
24357;SDS011;13668;52.154;5.580;2023-01-16T16:51:34;6.30;;;5.05;;
24357;SDS011;13668;52.154;5.580;2023-01-16T16:54:11;6.38;;;5.18;;
24357;SDS011;13668;52.154;5.580;2023-01-16T16:56:46;6.32;;;5.68;;
24357;SDS011;13668;52.154;5.580;2023-01-16T16:59:14;6.90;;;5.90;;
24357;SDS011;13668;52.154;5.580;2023-01-16T17:01:42;7.38;;;6.40;;
24357;SDS011;13668;52.154;5.580;2023-01-16T17:04:09;7.50;;;6.22;;
24357;SDS011;13668;52.154;5.580;2023-01-16T17:06:41;6.50;;;5.90;;
24357;SDS011;13668;52.154;5.580;2023-01-16T17:09:11;6.40;;;5.80;;
24357;SDS011;13668;52.154;5.580;2023-01-16T17:11:39;7.95;;;6.22;;
24357;SDS011;13668;52.154;5.580;2023-01-16T17:14:05;7.47;;;6.25;;
24357;SDS011;13668;52.154;5.580;2023-01-16T17:16:31;6.90;;;6.20;;
24357;SDS011;13668;52.154;5.580;2023-01-16T17:18:59;9.45;;;5.75;;
24357;SDS011;13668;52.154;5.580;2023-01-16T17:21:25;7.45;;;5.30;;
24357;SDS011;13668;52.154;5.580;2023-01-16T17:23:51;6.25;;;5.63;;
24357;SDS011;13668;52.154;5.580;2023-01-16T17:26:17;6.50;;;5.53;;
24357;SDS011;13668;52.154;5.580;2023-01-16T17:28:43;6.93;;;5.93;;
24357;SDS011;13668;52.154;5.580;2023-01-16T17:31:12;7.72;;;6.45;;
24357;SDS011;13668;52.154;5.580;2023-01-16T17:33:39;8.48;;;6.60;;
24357;SDS011;13668;52.154;5.580;2023-01-16T17:36:05;7.82;;;6.72;;